• Join FlightAware (Why Join?)
  • Login
  • US Flag 
04:31PM EST


 

Airport Tracker/Info


-or-


 

Live Flight TrackerFlight Track Log ✈ N327A ✈ 05-May-2013 ✈ KIAH - KFXE

Flight Track Log - Related Links

Times and Time Zones

All times are in EDT time to prevent confusion due to time zone crossing. See the N327A flight status page for this flight to view local times or setup timezone preferences in your user account.

Time Position Orientation Groundspeed Altitude Reporting Facility
EDT Latitude Longitude Course Direction KTS MPH feet Rate Location/Type
09:59PM 29.9594 -95.3414 138° Southeast 160 184 700  Level Houston Center
10:00PM 29.9153 -95.2961 138° Southeast 173 199 3,300 2,040 Climbing Houston Center
10:01PM 29.9072 -95.2828 125° Southeast 176 203 4,000 2,160 Climbing Houston Center
10:01PM 29.8883 -95.2536 127° Southeast 189 217 5,300 2,040 Climbing Houston Center
10:02PM 29.8756 -95.2339 127° Southeast 187 215 6,100 2,040 Climbing Houston Center
10:02PM 29.8544 -95.2047 130° Southeast 196 226 7,400 1,920 Climbing Houston Center
10:03PM 29.8428 -95.1831 122° Southeast 194 223 8,100 1,680 Climbing Houston Center
10:03PM 29.8314 -95.1378 106° East 202 232 9,300 1,560 Climbing Houston Center
10:04PM 29.8319 -95.1186 88° East 204 235 9,700 1,560 Climbing Houston Center
10:04PM 29.8228 -95.0689 102° East 214 246 10,900 1,260 Climbing Houston Center
10:05PM 29.8222 -95.0503 92° East 213 245 11,000 60 Climbing Houston Center
10:05PM 29.8142 -94.9978 100° East 280 322 11,000  Level Houston Center
10:06PM 29.8100 -94.9631 98° East 272 313 11,000 240 Level Houston Center
10:06PM 29.8008 -94.9031 100° East 295 339 11,300 1,080 Climbing Houston Center
10:07PM 29.7972 -94.8711 97° East 289 333 12,100 1,620 Climbing Houston Center
10:08PM 29.7850 -94.7903 100° East 267 307 13,800 1,800 Climbing Houston Center
10:09PM 29.7756 -94.7178 99° East 239 275 15,800 1,860 Climbing Houston Center
10:10PM 29.7642 -94.6389 99° East 244 281 17,700 1,860 Climbing Houston Center
10:11PM 29.7511 -94.5550 100° East 265 305 19,700 1,860 Climbing Houston Center
10:12PM 29.7394 -94.4739 99° East 259 298 21,500 1,680 Climbing Houston Center
10:13PM 29.7283 -94.3900 99° East 264 304 23,200 1,680 Climbing Houston Center
10:14PM 29.7103 -94.2878 101° East 272 313 25,000 1,500 Climbing Houston Center
10:15PM 29.6928 -94.1992 103° East 283 326 26,300 1,200 Climbing Houston Center
10:16PM 29.6767 -94.1108 102° East 290 334 27,500 1,080 Climbing Houston Center
10:17PM 29.6586 -94.0172 102° East 299 344 28,600 1,080 Climbing Houston Center
10:18PM 29.6403 -93.9197 102° East 310 357 29,700 1,020 Climbing Houston Center
10:19PM 29.6225 -93.8214 102° East 314 361 30,700 900 Climbing Houston Center
10:20PM 29.6028 -93.7200 103° East 324 373 31,600 840 Climbing Houston Center
10:21PM 29.5822 -93.6158 103° East 333 383 32,500 780 Climbing Houston Center
10:22PM 29.5619 -93.5100 102° East 339 390 33,200 720 Climbing Houston Center
10:23PM 29.5364 -93.3800 103° East 349 402 34,000 660 Climbing Houston Center
10:24PM 29.5147 -93.2692 103° East 354 407 34,600 480 Climbing Houston Center
10:25PM 29.4928 -93.1561 103° East 361 415 35,000 180 Climbing Houston Center
10:26PM 29.4694 -93.0367 103° East 381 438 35,000  Level Houston Center
10:27PM 29.4450 -92.9117 103° East 399 459 35,000  Level Houston Center
10:28PM 29.4194 -92.7822 103° East 415 478 35,000  Level Houston Center
10:29PM 29.3928 -92.6511 103° East 423 487 35,000  Level Houston Center
10:30PM 29.3669 -92.5178 103° East 430 495 35,000  Level Houston Center
10:31PM 29.3400 -92.3831 103° East 433 498 35,000  Level Houston Center
10:32PM 29.3128 -92.2486 103° East 434 499 35,000  Level Houston Center
10:33PM 29.2794 -92.0881 103° East 433 498 35,000  Level Houston Center
10:34PM 29.2511 -91.9517 103° East 440 506 35,000  Level Houston Center
10:35PM 29.2239 -91.8156 103° East 440 506 35,000  Level Houston Center
10:36PM 29.1944 -91.6714 103° East 440 506 35,000  Level Houston Center
10:37PM 29.1647 -91.5353 104° East 442 509 35,000  Level Houston Center
10:38PM 29.1375 -91.3994 103° East 440 506 35,000  Level Houston Center
10:39PM 29.1072 -91.2619 104° East 445 512 35,000  Level Houston Center
10:40PM 29.0797 -91.1267 103° East 440 506 35,000  Level Houston Center
10:41PM 29.0497 -90.9914 104° East 441 507 35,000  Level Houston Center
10:42PM 29.0208 -90.8561 104° East 441 507 35,000  Level Houston Center
10:43PM 28.9919 -90.7211 104° East 440 506 35,000  Level Houston Center
10:44PM 28.9625 -90.5861 104° East 440 506 35,000  Level Houston Center
10:45PM 28.9339 -90.4511 104° East 441 507 35,000  Level Houston Center
10:46PM 28.9033 -90.3161 104° East 440 506 35,000  Level Houston Center
10:47PM 28.8733 -90.1808 104° East 441 507 35,000  Level Houston Center
10:48PM 28.8378 -90.0183 104° East 443 510 35,000  Level Houston Center
10:49PM 28.8078 -89.8847 104° East 440 506 35,000  Level Houston Center
10:50PM 28.7778 -89.7494 104° East 441 507 35,000  Level Houston Center
10:52PM 28.7481 -89.6144 104° East 441 507 35,000  Level Houston Center
10:53PM 28.7167 -89.4783 105° East 446 513 35,000  Level Houston Center
10:54PM 28.6872 -89.3433 104° East 442 509 35,000  Level Houston Center
10:55PM 28.6564 -89.2106 105° East 437 503 35,000  Level Houston Center
10:56PM 28.6261 -89.0767 104° East 438 504 35,000  Level Houston Center
10:57PM 28.5956 -88.9422 104° East 438 504 35,000  Level Houston Center
10:58PM 28.5647 -88.8100 105° East 437 503 35,000  Level Houston Center
10:59PM 28.5333 -88.6761 105° East 438 504 35,000  Level Houston Center
11:00PM 28.5028 -88.5414 104° East 441 507 35,000  Level Houston Center
11:01PM 28.4647 -88.3819 105° East 438 504 35,000  Level Houston Center
11:02PM 28.4336 -88.2469 105° East 442 509 35,000  Level Houston Center
11:03PM 28.4017 -88.1139 105° East 441 507 35,000  Level Houston Center
11:04PM 28.3733 -87.9950 105° East 438 504 35,000  Level Houston Center
11:05PM 28.3342 -87.8642 109° East 438 504 35,000  Level Houston Center
11:06PM 28.2958 -87.7322 108° East 441 507 35,000  Level Houston Center
11:07PM 28.2578 -87.6017 108° East 438 504 35,000  Level Houston Center
11:08PM 28.2194 -87.4700 108° East 440 506 35,000  Level Houston Center
11:09PM 28.1736 -87.3131 108° East 439 505 35,000  Level Houston Center
11:10PM 28.1353 -87.1822 108° East 439 505 35,000  Level Houston Center
11:11PM 28.0994 -87.0542 108° East 436 502 35,000  Level Jacksonville Center
11:12PM 28.0575 -86.9233 110° East 432 497 35,000  Level Jacksonville Center
11:13PM 28.0200 -86.7900 108° East 437 503 35,000  Level Jacksonville Center
11:14PM 27.9819 -86.6664 109° East 431 496 35,000  Level Jacksonville Center
11:15PM 27.9442 -86.5311 108° East 436 502 35,000  Level Jacksonville Center
11:16PM 27.9042 -86.3983 109° East 436 502 35,000  Level Jacksonville Center
11:17PM 27.8656 -86.2725 109° East 436 502 35,000  Level Jacksonville Center
11:18PM 27.8275 -86.1400 108° East 429 494 35,000  Level Jacksonville Center
11:19PM 27.7908 -86.0144 108° East 431 496 35,000  Level Jacksonville Center
11:20PM 27.7522 -85.8819 108° East 431 496 35,000  Level Jacksonville Center
11:21PM 27.7236 -85.7731 107° East 449 517 35,000  Level Miami Center
11:22PM 27.6814 -85.6456 110° East 454 522 35,000  Level Miami Center
11:23PM 27.6478 -85.5167 106° East 442 509 35,000  Level Miami Center
11:24PM 27.6053 -85.3872 110° East 437 503 35,000  Level Miami Center
11:25PM 27.5611 -85.2553 111° Southeast 442 509 35,000  Level Miami Center
11:26PM 27.5311 -85.1269 105° East 436 502 35,000  Level Miami Center
11:27PM 27.4883 -84.9975 110° East 436 502 35,000 -240 Level Miami Center
11:28PM 27.4517 -84.8689 108° East 436 502 34,600 -720 Descending Miami Center
11:29PM 27.4156 -84.7331 107° East 436 502 33,600 -840 Descending Miami Center
11:30PM 27.3811 -84.5953 106° East 448 516 33,000 -300 Descending Miami Center
11:31PM 27.3361 -84.4639 111° Southeast 448 516 33,000  Level Miami Center
11:32PM 27.3033 -84.3358 106° East 448 516 33,000  Level Miami Center
11:33PM 27.2658 -84.2097 108° East 436 502 33,000  Level Miami Center
11:34PM 27.2286 -84.0814 108° East 429 494 33,000  Level Miami Center
11:35PM 27.1911 -83.9531 108° East 429 494 33,000  Level Miami Center
11:36PM 27.1533 -83.8272 109° East 429 494 33,000  Level Miami Center
11:37PM 27.1178 -83.7014 108° East 429 494 33,000  Level Miami Center
11:38PM 27.0819 -83.5758 108° East 429 494 33,000  Level Miami Center
11:39PM 27.0356 -83.4519 113° Southeast 429 494 33,000 -360 Level Miami Center
11:40PM 26.9908 -83.3331 113° Southeast 424 488 32,300 -900 Descending Miami Center
11:41PM 26.9422 -83.2025 113° Southeast 424 488 31,300 -1,020 Descending Miami Center
11:42PM 26.8956 -83.0764 113° Southeast 435 501 30,300 -1,140 Descending Miami Center
11:43PM 26.8414 -82.9294 112° Southeast 451 519 29,100 -1,200 Descending Miami Center
11:44PM 26.8006 -82.8064 110° East 444 511 28,000 -1,080 Descending Miami Center
11:45PM 26.7533 -82.6856 114° Southeast 432 497 27,000 -960 Descending Miami Center
11:46PM 26.7100 -82.5672 112° Southeast 421 484 26,100 -960 Descending Miami Center
11:47PM 26.6644 -82.4489 113° Southeast 408 470 25,100 -1,020 Descending Miami Center
11:48PM 26.6231 -82.3331 112° Southeast 403 464 24,100 -1,020 Descending Miami Center
11:49PM 26.5789 -82.2242 114° Southeast 398 458 23,100 -1,020 Descending Miami Center
11:50PM 26.5372 -82.1086 112° Southeast 393 452 22,100 -1,080 Descending Miami Center
11:51PM 26.4953 -82.0022 114° Southeast 388 447 21,000 -1,020 Descending Miami Center
11:52PM 26.4553 -81.8869 111° Southeast 388 447 20,100 -960 Descending Miami Center
11:53PM 26.4150 -81.7808 113° Southeast 382 440 19,100 -1,080 Descending Miami Center
11:54PM 26.3747 -81.6750 113° Southeast 377 434 18,000 -1,320 Descending Miami Center
11:55PM 26.3364 -81.5739 113° Southeast 371 427 16,500 -1,560 Descending Miami Center
11:56PM 26.2978 -81.4725 113° Southeast 360 414 15,000 -1,740 Descending Miami Center
11:57PM 26.2592 -81.3761 114° Southeast 350 403 13,100 -2,280 Descending Miami Center
11:58PM 26.2264 -81.2822 111° Southeast 336 387 10,500 -2,580 Descending Miami Center
11:59PM 26.1933 -81.2000 114° Southeast 312 359 7,900 -2,280 Descending Miami Center
12:00AM 26.1583 -81.1200 116° Southeast 292 336 6,100 -1,080 Descending Miami Center
12:00AM 26.1350 -81.0569 112° Southeast 286 329 6,000 -120 Descending Miami Center
12:01AM 26.1294 -81.0358 106° East 291 335 6,000  Level Miami Center
12:02AM 26.0961 -80.9583 116° Southeast 286 329 6,000 -540 Level Miami Center
12:03AM 26.1047 -80.8661 84° East 271 312 5,000 -1,020 Descending Miami Center
12:04AM 26.1239 -80.7789 76° East 271 312 4,000 -540 Descending Miami Center
12:05AM 26.1428 -80.6961 76° East 271 312 4,000  Level Miami Center
12:06AM 26.1572 -80.6225 78° East 282 325 4,000  Level Miami Center
12:07AM 26.1781 -80.5400 74° East 281 323 4,000  Level Miami Center
12:08AM 26.1967 -80.4642 75° East 278 320 4,000 -480 Level Miami Center
12:09AM 26.2175 -80.3792 75° East 280 322 3,100 -960 Descending Miami Center
12:10AM 26.2383 -80.2986 74° East 268 308 2,100 -540 Descending Miami Center
12:11AM 26.2486 -80.2156 82° East 232 267 2,000 -60 Descending Miami Center
12:12AM 26.2542 -80.1533 84° East 186 214 2,000 -300 Level Miami Center
12:13AM 26.2364 -80.1042 112° Southeast 148 170 1,500 -720 Descending Miami Center
12:14AM 26.2028 -80.1169 199° South 160 184 600 -660 Descending Miami Center
12:15AM 26.1978 -80.1539 261° West 114 131 300 -360 Descending Miami Center
12:17AM 26.1833 -80.1667 193° South  Level FlightAware Approximate